Time;durP1;ratioP1;P1;durP2;ratioP2;P2;SDS_P1;SDS_P2;PMS_P1;PMS_P2;Temp;Humidity;BMP_temperature;BMP_pressure;BME280_temperature;BME280_humidity;BME280_pressure;Samples;Min_cycle;Max_cycle;Signal;HPM_P1;HPM_P2
2022/07/27 00:01:28;;;;;;;0.60;0.60;;;14.40;99.90;;;;;;5052544;28;20247;-76
2022/07/27 00:03:54;;;;;;;0.50;0.50;;;14.50;99.90;;;;;;5052653;28;20205;-76
2022/07/27 00:06:20;;;;;;;0.40;0.40;;;14.50;99.90;;;;;;5052352;28;20194;-76
2022/07/27 00:08:45;;;;;;;0.30;0.30;;;14.50;99.90;;;;;;5097596;28;20258;-78
2022/07/27 00:11:11;;;;;;;0.50;0.50;;;14.50;99.90;;;;;;5072489;28;20667;-76
2022/07/27 00:13:37;;;;;;;0.50;0.50;;;14.50;99.90;;;;;;5072215;28;20229;-75
2022/07/27 00:16:03;;;;;;;0.47;0.47;;;14.50;99.90;;;;;;5072551;28;20219;-76
2022/07/27 00:18:29;;;;;;;0.50;0.50;;;14.50;99.90;;;;;;5072074;28;20699;-76
2022/07/27 00:20:55;;;;;;;0.38;0.38;;;14.50;99.90;;;;;;5072338;28;20283;-76
2022/07/27 00:23:21;;;;;;;2.05;0.65;;;14.60;99.90;;;;;;5061963;28;20217;-76
2022/07/27 00:25:46;;;;;;;0.40;0.40;;;14.60;99.90;;;;;;5052576;28;20209;-76
2022/07/27 00:28:12;;;;;;;0.40;0.40;;;14.70;99.90;;;;;;5052209;28;20194;-76
2022/07/27 00:30:38;;;;;;;0.40;0.40;;;14.70;99.90;;;;;;5067764;28;20565;-76
2022/07/27 00:33:04;;;;;;;0.50;0.50;;;14.70;99.90;;;;;;5052122;28;20185;-76
2022/07/27 00:35:31;;;;;;;0.55;0.55;;;14.70;99.90;;;;;;5050540;28;20212;-76
2022/07/27 00:37:57;;;;;;;0.30;0.30;;;14.70;99.90;;;;;;5051795;28;20201;-75
2022/07/27 00:40:23;;;;;;;0.40;0.40;;;14.70;99.90;;;;;;5050407;28;20616;-75
2022/07/27 00:42:49;;;;;;;0.30;0.30;;;14.70;99.90;;;;;;5052037;28;20228;-76
2022/07/27 00:45:14;;;;;;;0.40;0.40;;;14.60;99.90;;;;;;5067643;28;20613;-75
2022/07/27 00:47:40;;;;;;;0.85;0.77;;;14.70;99.90;;;;;;5052197;28;20194;-76
2022/07/27 00:50:06;;;;;;;0.30;0.30;;;14.70;99.90;;;;;;5051744;28;20675;-74
2022/07/27 00:52:33;;;;;;;0.30;0.30;;;14.70;99.90;;;;;;5050463;28;20197;-75
2022/07/27 00:54:59;;;;;;;0.30;0.30;;;14.60;99.90;;;;;;5050567;28;20197;-75
2022/07/27 00:57:26;;;;;;;0.40;0.40;;;14.70;99.90;;;;;;5051680;28;20216;-74
2022/07/27 00:59:52;;;;;;;0.40;0.40;;;14.70;99.90;;;;;;5051083;28;20567;-75
2022/07/27 01:02:18;;;;;;;0.38;0.38;;;14.70;99.90;;;;;;5052204;28;20280;-75
2022/07/27 01:04:43;;;;;;;0.30;0.30;;;14.60;99.90;;;;;;5062456;28;20246;-74
2022/07/27 01:07:10;;;;;;;0.40;0.40;;;14.60;99.90;;;;;;5070578;28;20564;-74
2022/07/27 01:12:21;;;;;;;0.40;0.40;;;14.60;99.90;;;;;;5060460;28;20599;-75
2022/07/27 01:14:48;;;;;;;0.40;0.40;;;14.50;99.90;;;;;;5051485;28;20193;-75
2022/07/27 01:17:14;;;;;;;0.40;0.40;;;14.50;99.90;;;;;;5070539;28;20685;-75
2022/07/27 01:19:40;;;;;;;0.40;0.40;;;14.50;99.90;;;;;;5072148;28;20207;-74
2022/07/27 01:22:09;;;;;;;0.40;0.40;;;14.50;99.90;;;;;;5072184;28;20197;-74
2022/07/27 01:24:38;;;;;;;0.40;0.40;;;14.50;99.90;;;;;;5070948;28;20299;-73
2022/07/27 01:27:04;;;;;;;0.50;0.50;;;14.50;99.90;;;;;;5071079;28;20227;-75
2022/07/27 01:29:31;;;;;;;0.40;0.40;;;14.50;99.90;;;;;;5072101;28;20192;-74
2022/07/27 01:31:57;;;;;;;0.40;0.40;;;14.50;99.90;;;;;;5071968;28;20211;-74
2022/07/27 01:34:22;;;;;;;0.40;0.40;;;14.50;99.90;;;;;;5071829;28;20696;-75
2022/07/27 01:36:48;;;;;;;0.40;0.40;;;14.50;99.90;;;;;;5072149;28;20197;-74
2022/07/27 01:39:19;;;;;;;0.40;0.40;;;14.50;99.90;;;;;;5071795;28;20201;-75
2022/07/27 01:41:45;;;;;;;0.40;0.40;;;14.40;99.90;;;;;;5070557;28;20312;-75
2022/07/27 01:44:11;;;;;;;0.40;0.40;;;14.40;99.90;;;;;;5071378;28;20283;-75
2022/07/27 01:46:37;;;;;;;0.40;0.40;;;14.40;99.90;;;;;;5070206;28;20201;-75
2022/07/27 01:49:04;;;;;;;0.40;0.40;;;14.40;99.90;;;;;;5070302;28;20204;-75
2022/07/27 01:51:29;;;;;;;0.40;0.40;;;14.30;99.90;;;;;;5070566;28;20442;-75
2022/07/27 01:53:55;;;;;;;0.40;0.40;;;14.30;99.90;;;;;;5071077;28;20193;-75
2022/07/27 01:56:21;;;;;;;0.40;0.40;;;14.30;99.90;;;;;;5070260;28;20197;-77
2022/07/27 01:58:47;;;;;;;0.40;0.40;;;14.20;99.90;;;;;;5070499;28;20447;-75
2022/07/27 02:01:12;;;;;;;0.40;0.40;;;14.20;99.90;;;;;;5062680;28;20498;-75
2022/07/27 02:03:38;;;;;;;0.40;0.40;;;14.20;99.90;;;;;;5083489;28;20240;-75
2022/07/27 02:06:04;;;;;;;0.40;0.40;;;14.20;99.90;;;;;;5050493;28;20217;-75
2022/07/27 02:08:30;;;;;;;0.40;0.40;;;14.20;99.90;;;;;;5051389;28;20197;-74
2022/07/27 02:13:46;;;;;;;0.40;0.40;;;14.20;99.90;;;;;;5051735;28;20308;-75
2022/07/27 02:16:12;;;;;;;0.40;0.40;;;14.10;99.90;;;;;;5050199;28;20209;-75
2022/07/27 02:18:38;;;;;;;0.40;0.40;;;14.00;99.90;;;;;;5051093;28;20203;-76
2022/07/27 02:21:05;;;;;;;0.40;0.40;;;14.00;99.90;;;;;;5049881;28;20197;-75
2022/07/27 02:23:32;;;;;;;0.40;0.40;;;14.00;99.90;;;;;;5051064;28;20197;-75
2022/07/27 02:25:58;;;;;;;0.30;0.30;;;13.90;99.90;;;;;;5051113;28;20190;-75
2022/07/27 02:28:24;;;;;;;0.40;0.40;;;13.90;99.90;;;;;;5052915;28;20198;-75
2022/07/27 02:30:49;;;;;;;0.45;0.45;;;13.80;99.90;;;;;;5053744;28;20193;-75
2022/07/27 02:33:15;;;;;;;0.40;0.40;;;13.80;99.90;;;;;;5054879;28;20186;-76
2022/07/27 02:35:42;;;;;;;0.40;0.40;;;13.80;99.90;;;;;;5053544;28;20672;-75
2022/07/27 02:38:08;;;;;;;0.40;0.40;;;13.70;99.90;;;;;;5055140;28;20205;-75
2022/07/27 02:40:33;;;;;;;0.40;0.40;;;13.70;99.90;;;;;;5054448;28;20251;-74
2022/07/27 02:42:59;;;;;;;0.40;0.40;;;13.70;99.90;;;;;;5053419;28;20197;-74
2022/07/27 02:45:25;;;;;;;0.40;0.40;;;13.70;99.90;;;;;;5053498;28;20205;-74
2022/07/27 02:47:50;;;;;;;0.40;0.40;;;13.60;99.90;;;;;;5054721;28;20652;-74
2022/07/27 02:50:16;;;;;;;0.40;0.40;;;13.50;99.90;;;;;;5054586;28;20663;-75
2022/07/27 02:52:42;;;;;;;1.15;0.55;;;13.50;99.90;;;;;;5053841;28;20324;-74
2022/07/27 02:55:08;;;;;;;0.40;0.40;;;13.40;99.90;;;;;;5053107;28;20197;-74
2022/07/27 02:57:36;;;;;;;0.40;0.40;;;13.40;99.90;;;;;;5054339;28;20273;-74
2022/07/27 03:00:04;;;;;;;0.40;0.40;;;13.30;99.90;;;;;;5056541;28;20196;-74
2022/07/27 03:02:30;;;;;;;0.40;0.40;;;13.20;99.90;;;;;;5064665;28;20198;-74
2022/07/27 03:04:56;;;;;;;0.40;0.40;;;13.20;99.90;;;;;;5072195;28;20803;-74
2022/07/27 03:07:21;;;;;;;0.40;0.40;;;13.10;99.90;;;;;;5073753;28;20197;-73
2022/07/27 03:09:47;;;;;;;0.40;0.40;;;13.10;99.90;;;;;;5073152;28;20225;-74
2022/07/27 03:12:13;;;;;;;0.40;0.40;;;13.10;99.90;;;;;;5072610;28;20224;-74
2022/07/27 03:14:38;;;;;;;0.40;0.40;;;13.10;99.90;;;;;;5072835;28;20273;-74
2022/07/27 03:17:04;;;;;;;0.40;0.40;;;13.00;99.90;;;;;;5072891;28;20544;-74
2022/07/27 03:19:30;;;;;;;0.40;0.40;;;13.00;99.90;;;;;;5074071;28;20565;-74
2022/07/27 03:21:55;;;;;;;0.40;0.40;;;13.00;99.90;;;;;;5074230;28;20671;-74
2022/07/27 03:24:21;;;;;;;0.40;0.40;;;12.90;99.90;;;;;;5072510;28;20236;-75
2022/07/27 03:26:50;;;;;;;0.50;0.50;;;12.90;99.90;;;;;;5073738;28;20196;-76
2022/07/27 03:29:15;;;;;;;0.40;0.40;;;12.90;99.90;;;;;;5072329;28;20196;-74
2022/07/27 03:31:43;;;;;;;0.50;0.50;;;12.90;99.90;;;;;;5074116;28;20189;-74
2022/07/27 03:34:08;;;;;;;0.40;0.40;;;12.90;99.90;;;;;;5072784;28;20204;-74
2022/07/27 03:36:35;;;;;;;0.45;0.45;;;12.90;99.90;;;;;;5072612;28;20272;-74
2022/07/27 03:39:00;;;;;;;0.47;0.47;;;12.90;99.90;;;;;;5051683;28;20549;-74
2022/07/27 03:41:26;;;;;;;0.40;0.40;;;13.00;99.90;;;;;;5052993;28;20288;-76
2022/07/27 03:43:52;;;;;;;0.40;0.40;;;13.10;99.90;;;;;;5053824;28;20194;-73
2022/07/27 03:46:20;;;;;;;0.40;0.40;;;13.10;99.90;;;;;;5052449;28;20190;-75
2022/07/27 03:48:46;;;;;;;0.40;0.40;;;13.20;99.90;;;;;;5053590;28;20280;-75
2022/07/27 03:51:12;;;;;;;0.40;0.40;;;13.20;99.90;;;;;;5053342;28;20278;-74
2022/07/27 03:53:38;;;;;;;0.40;0.40;;;13.20;99.90;;;;;;5053189;28;20196;-74
2022/07/27 03:56:04;;;;;;;0.40;0.40;;;13.30;99.90;;;;;;5051965;28;20205;-74
2022/07/27 03:58:29;;;;;;;0.40;0.40;;;13.30;99.90;;;;;;5053038;28;20280;-74
2022/07/27 04:00:55;;;;;;;0.40;0.40;;;13.40;99.90;;;;;;5062693;28;20623;-74
2022/07/27 04:03:21;;;;;;;0.40;0.40;;;13.40;99.90;;;;;;5071831;28;20200;-74
2022/07/27 04:05:47;;;;;;;0.40;0.40;;;13.40;99.90;;;;;;5071776;28;20209;-75
2022/07/27 04:08:12;;;;;;;0.45;0.45;;;13.40;99.90;;;;;;5065196;28;20185;-74
2022/07/27 04:10:38;;;;;;;0.40;0.40;;;13.30;99.90;;;;;;5052945;28;20248;-74
2022/07/27 04:13:04;;;;;;;0.40;0.40;;;13.20;99.90;;;;;;5051239;28;20225;-74
2022/07/27 04:15:30;;;;;;;0.40;0.40;;;13.20;99.90;;;;;;5052630;28;20208;-75
2022/07/27 04:17:55;;;;;;;0.40;0.40;;;13.10;99.90;;;;;;5051453;28;20433;-76
2022/07/27 04:20:21;;;;;;;0.40;0.40;;;13.10;99.90;;;;;;5052467;28;20232;-74
2022/07/27 04:22:47;;;;;;;0.50;0.50;;;13.10;99.90;;;;;;5052802;28;20189;-75
2022/07/27 04:25:13;;;;;;;0.50;0.50;;;13.00;99.90;;;;;;5052876;28;20229;-75
2022/07/27 04:27:39;;;;;;;0.40;0.40;;;13.00;99.90;;;;;;5064311;28;20201;-73
2022/07/27 04:30:06;;;;;;;0.47;0.47;;;13.10;99.90;;;;;;5072614;28;20197;-73
2022/07/27 04:32:31;;;;;;;0.40;0.40;;;13.30;99.90;;;;;;5072615;28;20670;-73
2022/07/27 04:34:57;;;;;;;0.40;0.40;;;13.40;99.90;;;;;;5055427;28;20201;-74
2022/07/27 04:37:23;;;;;;;0.43;0.43;;;13.60;99.90;;;;;;5084599;28;20205;-74
2022/07/27 04:39:49;;;;;;;0.50;0.50;;;13.80;99.90;;;;;;5052701;28;20272;-73
2022/07/27 04:42:14;;;;;;;8.90;1.60;;;13.90;99.90;;;;;;5052396;28;20197;-75
2022/07/27 04:44:40;;;;;;;0.47;0.47;;;14.00;99.90;;;;;;5052087;28;20679;-74
2022/07/27 04:47:06;;;;;;;0.40;0.40;;;14.00;99.90;;;;;;5084615;28;20640;-75
2022/07/27 04:49:31;;;;;;;0.40;0.40;;;14.10;99.90;;;;;;5084641;28;20178;-73
2022/07/27 04:51:58;;;;;;;0.40;0.40;;;14.20;99.90;;;;;;5051040;28;20197;-74
2022/07/27 04:54:26;;;;;;;0.47;0.47;;;14.20;99.90;;;;;;5083601;28;20205;-74
2022/07/27 04:56:52;;;;;;;0.40;0.40;;;14.30;99.90;;;;;;5084025;28;20193;-74
2022/07/27 04:59:18;;;;;;;2.15;1.02;;;14.40;99.90;;;;;;5083786;28;20205;-74
2022/07/27 05:01:43;;;;;;;0.40;0.40;;;14.50;99.90;;;;;;5067343;28;20283;-73
2022/07/27 05:04:09;;;;;;;0.40;0.40;;;14.60;99.90;;;;;;5072409;28;20596;-75
2022/07/27 05:06:35;;;;;;;0.40;0.40;;;14.70;99.90;;;;;;5071303;28;20643;-72
2022/07/27 05:09:01;;;;;;;0.38;0.38;;;14.80;99.90;;;;;;5071701;28;20189;-74
2022/07/27 05:11:26;;;;;;;0.40;0.40;;;14.90;99.90;;;;;;5067685;28;20222;-73
2022/07/27 05:13:52;;;;;;;0.40;0.40;;;15.00;99.90;;;;;;5049976;28;20288;-74
2022/07/27 05:16:18;;;;;;;0.30;0.30;;;15.10;99.90;;;;;;5051848;28;20185;-76
2022/07/27 05:18:44;;;;;;;0.30;0.30;;;15.20;99.90;;;;;;5051059;28;20202;-74
2022/07/27 05:21:13;;;;;;;0.40;0.40;;;15.30;99.90;;;;;;5050372;28;20275;-75
2022/07/27 05:23:38;;;;;;;0.40;0.40;;;15.20;99.90;;;;;;5050283;28;20194;-74
2022/07/27 05:26:04;;;;;;;0.30;0.30;;;15.20;99.90;;;;;;5052015;28;20343;-74
2022/07/27 05:28:30;;;;;;;0.40;0.40;;;15.30;99.90;;;;;;5051773;28;20186;-75
2022/07/27 05:30:55;;;;;;;0.40;0.40;;;15.30;99.90;;;;;;5051622;28;20216;-75
2022/07/27 05:33:21;;;;;;;0.40;0.40;;;15.40;99.90;;;;;;5049814;28;20292;-76
2022/07/27 05:35:47;;;;;;;0.40;0.40;;;15.40;99.90;;;;;;5051819;28;20202;-75
2022/07/27 05:38:13;;;;;;;0.50;0.50;;;15.40;99.90;;;;;;5052140;28;20570;-74
2022/07/27 05:40:40;;;;;;;0.30;0.30;;;15.30;99.90;;;;;;5050074;28;20208;-74
2022/07/27 05:43:08;;;;;;;0.30;0.30;;;15.30;99.90;;;;;;5050655;28;20668;-74
2022/07/27 05:45:34;;;;;;;0.30;0.30;;;15.30;99.90;;;;;;5051607;28;20216;-75
2022/07/27 05:48:00;;;;;;;0.32;0.32;;;15.40;99.90;;;;;;5051719;28;20560;-74
2022/07/27 05:50:25;;;;;;;0.30;0.30;;;15.50;99.90;;;;;;5051673;28;20198;-74
2022/07/27 05:52:51;;;;;;;0.40;0.40;;;15.60;99.90;;;;;;5051636;28;20266;-74
2022/07/27 05:55:17;;;;;;;1.58;1.25;;;15.70;99.90;;;;;;5049918;28;20197;-75
2022/07/27 05:57:43;;;;;;;0.30;0.30;;;15.70;99.90;;;;;;5065143;28;20562;-74
2022/07/27 06:00:12;;;;;;;0.30;0.30;;;15.90;99.90;;;;;;5071222;28;20238;-74
2022/07/27 06:02:38;;;;;;;0.40;0.40;;;16.10;99.90;;;;;;5071858;28;20222;-74
2022/07/27 06:05:04;;;;;;;0.57;0.55;;;16.00;99.90;;;;;;5075211;28;20677;-73
2022/07/27 06:10:15;;;;;;;0.30;0.30;;;16.10;99.90;;;;;;5075802;28;20233;-75
2022/07/27 06:12:43;;;;;;;0.30;0.30;;;16.10;99.90;;;;;;5074882;28;20593;-75
2022/07/27 06:15:11;;;;;;;0.30;0.30;;;16.10;99.90;;;;;;5054109;28;20290;-75
2022/07/27 06:17:37;;;;;;;0.40;0.40;;;16.10;99.90;;;;;;5054396;28;20583;-74
2022/07/27 06:20:09;;;;;;;0.45;0.40;;;16.10;99.90;;;;;;5066794;28;20197;-74
2022/07/27 06:22:45;;;;;;;0.30;0.30;;;16.10;99.90;;;;;;5073831;28;20694;-75
2022/07/27 06:25:11;;;;;;;0.30;0.30;;;16.00;99.90;;;;;;5074925;28;20208;-75
2022/07/27 06:27:37;;;;;;;0.30;0.30;;;15.90;99.90;;;;;;5073375;28;20207;-72
2022/07/27 06:30:03;;;;;;;0.30;0.30;;;16.00;99.90;;;;;;5074911;28;20268;-74
2022/07/27 06:32:29;;;;;;;0.30;0.30;;;16.00;99.90;;;;;;5074796;28;20185;-74
2022/07/27 06:34:55;;;;;;;0.43;0.43;;;16.10;99.90;;;;;;5073674;28;20717;-74
2022/07/27 06:37:20;;;;;;;0.30;0.30;;;16.10;99.90;;;;;;5074558;28;20192;-73
2022/07/27 06:39:46;;;;;;;0.30;0.30;;;16.10;99.90;;;;;;5074782;28;20197;-73
2022/07/27 06:42:14;;;;;;;0.30;0.30;;;16.20;99.90;;;;;;5074851;28;20212;-74
2022/07/27 06:44:40;;;;;;;1.02;0.57;;;16.30;99.90;;;;;;5074432;28;20689;-74
2022/07/27 06:47:06;;;;;;;0.30;0.30;;;16.50;99.90;;;;;;5073584;28;20279;-73
2022/07/27 06:49:32;;;;;;;0.30;0.30;;;16.50;99.90;;;;;;5073188;28;20197;-74
2022/07/27 06:51:58;;;;;;;0.30;0.30;;;16.50;99.90;;;;;;5074657;28;20708;-74
2022/07/27 06:54:23;;;;;;;0.30;0.30;;;16.50;99.90;;;;;;5075184;28;20224;-74
2022/07/27 06:56:49;;;;;;;0.30;0.30;;;16.50;99.90;;;;;;5073945;28;20201;-74
2022/07/27 06:59:15;;;;;;;0.30;0.30;;;16.50;99.90;;;;;;5074472;28;20663;-74
2022/07/27 07:01:40;;;;;;;0.30;0.30;;;16.40;99.90;;;;;;5072370;28;20193;-75
2022/07/27 07:04:06;;;;;;;0.50;0.50;;;16.40;99.90;;;;;;5074667;28;20212;-74
2022/07/27 07:06:32;;;;;;;0.30;0.30;;;16.40;99.90;;;;;;5074863;28;20192;-74
2022/07/27 07:08:58;;;;;;;0.30;0.30;;;16.60;99.90;;;;;;5074263;28;20188;-74
2022/07/27 07:11:24;;;;;;;0.30;0.30;;;16.60;99.90;;;;;;5069586;28;20185;-73
2022/07/27 07:13:50;;;;;;;0.30;0.30;;;16.40;99.90;;;;;;5053605;28;20243;-74
2022/07/27 07:16:15;;;;;;;0.40;0.40;;;16.30;99.90;;;;;;5053599;28;20193;-74
2022/07/27 07:18:41;;;;;;;0.50;0.50;;;16.30;99.90;;;;;;5054015;28;20190;-73
2022/07/27 07:21:07;;;;;;;0.30;0.30;;;16.30;99.90;;;;;;5054006;28;20688;-74
2022/07/27 07:23:32;;;;;;;0.30;0.30;;;16.30;99.90;;;;;;5053663;28;20311;-74
2022/07/27 07:25:58;;;;;;;1.27;0.60;;;16.40;99.90;;;;;;5086120;28;20206;-71
2022/07/27 07:28:24;;;;;;;0.30;0.30;;;16.40;99.90;;;;;;5053736;28;20181;-74
2022/07/27 07:30:49;;;;;;;0.30;0.30;;;16.60;99.90;;;;;;5085951;28;20676;-74
2022/07/27 07:33:15;;;;;;;0.30;0.30;;;16.70;99.90;;;;;;5053503;28;20529;-75
2022/07/27 07:35:42;;;;;;;0.30;0.30;;;16.60;99.90;;;;;;5058815;28;20204;-74
2022/07/27 07:38:08;;;;;;;0.43;0.43;;;16.80;99.90;;;;;;5071692;28;20714;-73
2022/07/27 07:40:33;;;;;;;0.30;0.30;;;16.70;99.90;;;;;;5073115;28;20272;-73
2022/07/27 07:43:03;;;;;;;0.30;0.30;;;16.70;99.90;;;;;;5072407;28;20193;-74
2022/07/27 07:45:30;;;;;;;0.30;0.30;;;16.70;99.90;;;;;;5072193;28;20668;-74
2022/07/27 07:47:57;;;;;;;0.30;0.30;;;16.80;99.90;;;;;;5073003;28;20346;-74
2022/07/27 07:50:24;;;;;;;0.40;0.40;;;17.00;99.90;;;;;;5073509;28;20193;-75
2022/07/27 07:52:51;;;;;;;0.30;0.30;;;17.20;99.90;;;;;;5073838;28;20193;-74
2022/07/27 07:55:26;;;;;;;0.30;0.30;;;17.50;99.90;;;;;;5073193;28;20201;-74
2022/07/27 07:57:52;;;;;;;0.30;0.30;;;17.70;99.90;;;;;;5072189;28;20200;-74
2022/07/27 08:00:19;;;;;;;0.32;0.32;;;17.60;99.90;;;;;;5073444;28;20239;-75
2022/07/27 08:02:48;;;;;;;0.25;0.25;;;17.40;99.90;;;;;;5072138;28;20620;-74
2022/07/27 08:05:15;;;;;;;0.30;0.30;;;17.20;99.90;;;;;;5072062;28;20588;-73
2022/07/27 08:07:41;;;;;;;0.30;0.30;;;17.10;99.90;;;;;;5071708;28;20197;-75
2022/07/27 08:10:08;;;;;;;0.30;0.30;;;17.40;99.90;;;;;;5073363;28;20200;-76
2022/07/27 08:12:35;;;;;;;0.30;0.30;;;17.70;99.90;;;;;;5072655;28;20215;-75
2022/07/27 08:15:01;;;;;;;0.30;0.30;;;18.00;99.90;;;;;;5072620;28;20663;-76
2022/07/27 08:17:27;;;;;;;0.20;0.20;;;18.30;99.90;;;;;;5071938;28;20208;-75
2022/07/27 08:19:52;;;;;;;0.28;0.28;;;18.70;99.90;;;;;;5072870;28;20228;-75
2022/07/27 08:22:18;;;;;;;0.20;0.20;;;18.40;99.90;;;;;;5071463;28;20197;-76
2022/07/27 08:24:44;;;;;;;0.30;0.30;;;18.10;99.90;;;;;;5072814;28;20578;-75
2022/07/27 08:27:09;;;;;;;0.30;0.30;;;18.10;99.90;;;;;;5071448;28;20205;-75
2022/07/27 08:29:38;;;;;;;0.28;0.28;;;18.30;99.90;;;;;;5071218;28;20716;-74
2022/07/27 08:32:04;;;;;;;0.30;0.30;;;18.60;99.90;;;;;;5071423;28;20578;-74
2022/07/27 08:34:30;;;;;;;0.30;0.30;;;18.60;99.90;;;;;;5072220;28;20212;-75
2022/07/27 08:36:57;;;;;;;0.25;0.25;;;18.30;99.90;;;;;;5070988;28;20667;-75
2022/07/27 08:39:23;;;;;;;0.30;0.30;;;18.10;99.90;;;;;;5071887;28;20195;-75
2022/07/27 08:41:52;;;;;;;0.20;0.20;;;17.70;99.90;;;;;;5072309;28;20279;-75
2022/07/27 08:44:26;;;;;;;0.20;0.20;;;17.50;99.90;;;;;;5072366;28;20222;-76
2022/07/27 08:46:53;;;;;;;0.30;0.30;;;17.60;99.90;;;;;;5071003;28;20220;-75
2022/07/27 08:49:20;;;;;;;0.30;0.30;;;17.60;99.90;;;;;;5071998;28;20201;-75
2022/07/27 08:51:47;;;;;;;0.30;0.30;;;17.70;99.90;;;;;;5072582;28;20195;-75
2022/07/27 08:54:12;;;;;;;0.35;0.30;;;18.10;99.90;;;;;;5071859;28;20258;-75
2022/07/27 08:56:38;;;;;;;0.30;0.30;;;18.10;99.90;;;;;;5071547;28;20193;-74
2022/07/27 08:59:04;;;;;;;0.20;0.20;;;18.20;99.90;;;;;;5072313;28;20197;-76
2022/07/27 09:01:37;;;;;;;0.30;0.30;;;18.20;99.90;;;;;;5071766;28;20200;-75
2022/07/27 09:04:03;;;;;;;0.20;0.20;;;18.10;99.90;;;;;;5072164;28;20268;-75
2022/07/27 09:06:41;;;;;;;0.20;0.20;;;18.00;99.90;;;;;;5070773;28;20641;-75
2022/07/27 09:09:07;;;;;;;0.20;0.20;;;18.30;99.90;;;;;;5055638;28;20205;-75
2022/07/27 09:11:35;;;;;;;0.20;0.20;;;18.20;99.90;;;;;;5051534;28;20204;-75
2022/07/27 09:14:06;;;;;;;0.20;0.20;;;18.30;99.90;;;;;;5050265;28;20222;-75
2022/07/27 09:16:33;;;;;;;0.30;0.30;;;18.60;99.90;;;;;;5050260;28;20228;-74
2022/07/27 09:19:09;;;;;;;0.20;0.20;;;18.90;99.90;;;;;;5051689;28;20620;-75
2022/07/27 09:21:36;;;;;;;0.20;0.20;;;19.10;99.90;;;;;;5051434;28;20189;-74
2022/07/27 09:24:15;;;;;;;0.20;0.20;;;19.10;99.90;;;;;;5054644;28;20205;-73
2022/07/27 09:26:42;;;;;;;0.20;0.20;;;19.00;99.90;;;;;;5067572;28;20204;-75
2022/07/27 09:29:08;;;;;;;0.20;0.20;;;19.00;99.90;;;;;;5071146;28;20200;-74
2022/07/27 09:31:48;;;;;;;0.25;0.25;;;18.80;99.90;;;;;;5070994;28;20201;-75
2022/07/27 09:34:27;;;;;;;0.30;0.30;;;18.90;99.90;;;;;;5071153;28;20192;-75
2022/07/27 09:36:56;;;;;;;0.20;0.20;;;19.10;99.90;;;;;;5070977;28;20261;-74
2022/07/27 09:39:23;;;;;;;0.20;0.20;;;19.20;99.90;;;;;;5070006;28;20197;-75
2022/07/27 09:41:58;;;;;;;0.20;0.20;;;19.60;99.90;;;;;;5070099;28;20205;-75
2022/07/27 09:44:39;;;;;;;0.20;0.20;;;19.70;99.90;;;;;;5056886;28;20667;-74
2022/07/27 09:47:29;;;;;;;0.30;0.30;;;19.50;99.90;;;;;;5051143;28;20272;-75
2022/07/27 09:50:16;;;;;;;0.20;0.20;;;19.60;99.90;;;;;;5049063;28;20293;-75
2022/07/27 09:52:42;;;;;;;0.20;0.20;;;19.80;99.90;;;;;;5050283;28;20208;-75
2022/07/27 09:55:09;;;;;;;0.20;0.20;;;20.00;99.90;;;;;;5050288;28;20202;-75
2022/07/27 09:57:54;;;;;;;0.20;0.20;;;19.90;99.90;;;;;;5052326;28;20285;-76
2022/07/27 10:00:21;;;;;;;0.20;0.20;;;19.80;99.90;;;;;;5054660;28;20671;-73
2022/07/27 10:02:49;;;;;;;0.20;0.20;;;19.90;99.90;;;;;;5071857;28;20258;-75
2022/07/27 10:05:20;;;;;;;0.20;0.20;;;20.40;99.90;;;;;;5071884;28;20205;-76
2022/07/27 10:07:46;;;;;;;0.20;0.20;;;20.90;99.90;;;;;;5071841;28;20192;-75
2022/07/27 10:10:13;;;;;;;0.20;0.20;;;20.70;99.90;;;;;;5071419;28;20181;-74
2022/07/27 10:12:41;;;;;;;0.20;0.20;;;20.60;99.90;;;;;;5050456;28;20232;-75
2022/07/27 10:15:08;;;;;;;0.20;0.20;;;20.50;99.90;;;;;;5050211;28;20338;-74
2022/07/27 10:17:36;;;;;;;0.20;0.20;;;20.60;99.90;;;;;;5050775;28;20206;-75
2022/07/27 10:20:07;;;;;;;0.20;0.20;;;20.70;99.90;;;;;;5051385;28;20193;-75
2022/07/27 10:22:48;;;;;;;0.20;0.20;;;20.90;99.90;;;;;;5050084;28;20204;-75
2022/07/27 10:25:16;;;;;;;0.20;0.20;;;21.20;99.90;;;;;;5049987;28;20248;-77
2022/07/27 10:27:47;;;;;;;0.20;0.20;;;21.00;99.90;;;;;;5050398;28;20286;-75
2022/07/27 10:30:15;;;;;;;0.20;0.20;;;21.00;99.90;;;;;;5051583;28;20185;-75
2022/07/27 10:32:44;;;;;;;0.20;0.20;;;20.90;99.90;;;;;;5050652;28;20186;-75
2022/07/27 10:35:30;;;;;;;0.20;0.20;;;20.90;99.90;;;;;;5061277;28;20284;-75
2022/07/27 10:38:17;;;;;;;0.20;0.20;;;21.10;99.90;;;;;;5071566;28;20647;-75
2022/07/27 10:40:43;;;;;;;0.20;0.20;;;21.50;99.90;;;;;;5071412;28;20284;-74
2022/07/27 10:43:15;;;;;;;0.20;0.20;;;21.70;99.90;;;;;;5051377;28;20331;-75
2022/07/27 10:45:44;;;;;;;0.20;0.20;;;21.50;99.90;;;;;;5050850;28;20589;-75
2022/07/27 10:48:34;;;;;;;0.20;0.20;;;21.50;99.90;;;;;;5051483;28;20247;-75
2022/07/27 10:51:00;;;;;;;0.28;0.28;;;21.40;99.90;;;;;;5054591;28;20186;-75
2022/07/27 10:53:38;;;;;;;0.20;0.20;;;21.70;99.90;;;;;;5054301;28;20545;-75
2022/07/27 10:56:05;;;;;;;0.20;0.20;;;22.00;99.90;;;;;;5055876;28;20193;-75
2022/07/27 10:58:31;;;;;;;0.20;0.20;;;22.30;99.90;;;;;;5053706;28;20574;-76
2022/07/27 11:00:58;;;;;;;0.10;0.10;;;22.80;99.90;;;;;;5055397;28;20254;-76
2022/07/27 11:03:32;;;;;;;0.20;0.20;;;23.00;99.90;;;;;;5053876;28;20285;-76
2022/07/27 11:06:00;;;;;;;0.20;0.20;;;23.30;99.90;;;;;;5054382;28;20702;-76
2022/07/27 11:08:32;;;;;;;0.47;0.20;;;23.30;99.90;;;;;;5068634;28;20192;-75
2022/07/27 11:10:59;;;;;;;0.20;0.20;;;23.10;99.90;;;;;;5074017;28;20719;-75
2022/07/27 11:13:27;;;;;;;0.20;0.20;;;23.00;99.90;;;;;;5074714;28;20221;-76
2022/07/27 11:15:57;;;;;;;0.20;0.20;;;22.60;99.90;;;;;;5074026;28;20734;-77
2022/07/27 11:18:28;;;;;;;0.20;0.20;;;22.70;99.90;;;;;;5075047;28;20713;-76
2022/07/27 11:21:15;;;;;;;0.20;0.20;;;22.90;99.90;;;;;;5074281;28;20283;-75
2022/07/27 11:24:02;;;;;;;0.10;0.10;;;22.80;99.90;;;;;;5074087;28;20662;-76
2022/07/27 11:26:46;;;;;;;0.20;0.20;;;22.80;99.90;;;;;;5073185;28;20236;-75
2022/07/27 11:29:16;;;;;;;0.30;0.30;;;22.50;99.90;;;;;;5075123;28;20203;-76
2022/07/27 11:31:45;;;;;;;0.20;0.20;;;22.40;99.90;;;;;;5086658;28;20256;-76
2022/07/27 11:34:12;;;;;;;0.20;0.20;;;22.60;99.90;;;;;;5091362;28;20681;-76
2022/07/27 11:36:48;;;;;;;0.10;0.10;;;22.70;99.90;;;;;;5074059;28;20197;-76
2022/07/27 11:39:26;;;;;;;0.20;0.20;;;23.00;99.90;;;;;;5074493;28;20220;-76
2022/07/27 11:42:01;;;;;;;0.30;0.30;;;22.70;99.90;;;;;;5073149;28;20197;-76
2022/07/27 11:44:27;;;;;;;0.10;0.10;;;22.80;99.90;;;;;;5073918;28;20211;-76
2022/07/27 11:46:54;;;;;;;0.47;0.22;;;23.00;99.90;;;;;;5074602;28;20208;-76
2022/07/27 11:49:29;;;;;;;0.10;0.10;;;23.00;99.90;;;;;;5072759;28;20193;-77
2022/07/27 11:51:58;;;;;;;0.10;0.10;;;23.00;99.90;;;;;;5074458;28;20256;-74
2022/07/27 11:54:24;;;;;;;0.13;0.13;;;22.70;99.90;;;;;;5073782;28;20192;-75
2022/07/27 11:56:55;;;;;;;0.15;0.15;;;23.00;99.90;;;;;;5072343;28;20212;-76
2022/07/27 11:59:32;;;;;;;0.10;0.10;;;23.30;99.90;;;;;;5072933;28;20671;-76
2022/07/27 12:02:09;;;;;;;0.10;0.10;;;23.60;99.90;;;;;;5071428;28;20576;-76
2022/07/27 12:04:42;;;;;;;0.20;0.20;;;23.50;99.90;;;;;;5058555;28;20206;-76
2022/07/27 12:07:20;;;;;;;0.17;0.17;;;23.40;99.90;;;;;;5052908;28;20793;-76
2022/07/27 12:10:01;;;;;;;0.13;0.13;;;23.80;99.90;;;;;;5052049;28;20316;-74
2022/07/27 12:12:29;;;;;;;0.32;0.32;;;24.10;99.90;;;;;;5052779;28;20209;-75
2022/07/27 12:15:01;;;;;;;0.20;0.20;;;23.70;99.70;;;;;;5051639;28;20251;-75
2022/07/27 12:17:38;;;;;;;0.10;0.10;;;23.50;99.90;;;;;;5052903;28;20202;-75
2022/07/27 12:20:19;;;;;;;0.10;0.10;;;23.60;99.30;;;;;;5053257;28;20200;-75
2022/07/27 12:22:48;;;;;;;0.10;0.10;;;23.20;99.10;;;;;;5052548;28;20197;-75
2022/07/27 12:25:16;;;;;;;0.10;0.10;;;23.20;99.90;;;;;;5053390;28;20222;-74
2022/07/27 12:27:55;;;;;;;0.15;0.15;;;23.80;99.30;;;;;;5063524;28;20189;-75
2022/07/27 12:30:49;;;;;;;0.10;0.10;;;24.00;98.60;;;;;;5071933;28;20224;-77
2022/07/27 12:33:35;;;;;;;0.20;0.20;;;24.20;97.60;;;;;;5071266;28;20220;-76
2022/07/27 12:36:03;;;;;;;0.22;0.20;;;24.00;97.30;;;;;;5072459;28;20353;-75
2022/07/27 12:38:49;;;;;;;0.88;0.65;;;24.20;97.60;;;;;;5070664;28;20329;-75
2022/07/27 12:41:25;;;;;;;0.10;0.10;;;24.60;97.70;;;;;;5057318;28;20200;-75
2022/07/27 12:44:08;;;;;;;0.10;0.10;;;24.70;94.30;;;;;;5054854;28;20291;-76
2022/07/27 12:46:54;;;;;;;0.10;0.10;;;25.00;94.40;;;;;;5071547;28;20288;-76
2022/07/27 12:49:24;;;;;;;0.10;0.10;;;24.40;94.20;;;;;;5063942;28;20196;-75
2022/07/27 12:51:53;;;;;;;0.10;0.10;;;24.20;94.30;;;;;;5052922;28;20197;-76
2022/07/27 12:54:18;;;;;;;0.30;0.30;;;24.30;97.20;;;;;;5053534;28;20601;-76
2022/07/27 12:56:46;;;;;;;0.28;0.28;;;24.90;95.60;;;;;;5053045;28;20259;-76
2022/07/27 12:59:16;;;;;;;0.10;0.10;;;25.10;94.60;;;;;;5052322;28;20301;-76
2022/07/27 13:01:41;;;;;;;0.10;0.10;;;24.30;94.20;;;;;;5052496;28;20197;-76